sensor_id;sensor_type;location;lat;lon;timestamp;P1;durP1;ratioP1;P2;durP2;ratioP2
17686;SDS011;8962;52.538;13.266;2022-08-21T00:02:25;12.82;;;10.15;;
17686;SDS011;8962;52.538;13.266;2022-08-21T00:04:55;10.93;;;9.82;;
17686;SDS011;8962;52.538;13.266;2022-08-21T00:07:23;11.30;;;10.10;;
17686;SDS011;8962;52.538;13.266;2022-08-21T00:09:50;13.57;;;10.40;;
17686;SDS011;8962;52.538;13.266;2022-08-21T00:12:18;12.43;;;10.70;;
17686;SDS011;8962;52.538;13.266;2022-08-21T00:14:46;12.63;;;10.88;;
17686;SDS011;8962;52.538;13.266;2022-08-21T00:17:13;13.00;;;10.60;;
17686;SDS011;8962;52.538;13.266;2022-08-21T00:19:41;14.82;;;11.05;;
17686;SDS011;8962;52.538;13.266;2022-08-21T00:22:10;15.90;;;10.77;;
17686;SDS011;8962;52.538;13.266;2022-08-21T00:24:37;13.13;;;10.93;;
17686;SDS011;8962;52.538;13.266;2022-08-21T00:27:04;12.93;;;10.95;;
17686;SDS011;8962;52.538;13.266;2022-08-21T00:29:31;14.20;;;11.18;;
17686;SDS011;8962;52.538;13.266;2022-08-21T00:31:58;14.60;;;12.02;;
17686;SDS011;8962;52.538;13.266;2022-08-21T00:34:27;15.40;;;12.40;;
17686;SDS011;8962;52.538;13.266;2022-08-21T00:36:54;13.18;;;11.30;;
17686;SDS011;8962;52.538;13.266;2022-08-21T00:39:23;15.68;;;12.10;;
17686;SDS011;8962;52.538;13.266;2022-08-21T00:41:49;15.30;;;11.38;;
17686;SDS011;8962;52.538;13.266;2022-08-21T00:44:17;13.80;;;12.00;;
17686;SDS011;8962;52.538;13.266;2022-08-21T00:46:44;15.60;;;12.13;;
17686;SDS011;8962;52.538;13.266;2022-08-21T00:49:11;16.00;;;12.32;;
17686;SDS011;8962;52.538;13.266;2022-08-21T00:51:40;16.15;;;12.48;;
17686;SDS011;8962;52.538;13.266;2022-08-21T00:54:11;12.88;;;11.50;;
17686;SDS011;8962;52.538;13.266;2022-08-21T00:56:41;15.73;;;13.05;;
17686;SDS011;8962;52.538;13.266;2022-08-21T00:59:08;14.30;;;12.57;;
17686;SDS011;8962;52.538;13.266;2022-08-21T01:01:35;19.42;;;12.88;;
17686;SDS011;8962;52.538;13.266;2022-08-21T01:04:03;15.82;;;12.73;;
17686;SDS011;8962;52.538;13.266;2022-08-21T01:06:30;15.18;;;12.20;;
17686;SDS011;8962;52.538;13.266;2022-08-21T01:08:57;13.60;;;12.10;;
17686;SDS011;8962;52.538;13.266;2022-08-21T01:11:25;14.63;;;11.30;;
17686;SDS011;8962;52.538;13.266;2022-08-21T01:13:56;14.57;;;12.23;;
17686;SDS011;8962;52.538;13.266;2022-08-21T01:16:23;13.25;;;11.75;;
17686;SDS011;8962;52.538;13.266;2022-08-21T01:18:50;16.52;;;12.10;;
17686;SDS011;8962;52.538;13.266;2022-08-21T01:21:20;15.57;;;11.77;;
17686;SDS011;8962;52.538;13.266;2022-08-21T01:23:50;13.88;;;11.93;;
17686;SDS011;8962;52.538;13.266;2022-08-21T01:26:20;17.92;;;11.65;;
17686;SDS011;8962;52.538;13.266;2022-08-21T01:28:51;15.40;;;10.90;;
17686;SDS011;8962;52.538;13.266;2022-08-21T01:31:24;14.10;;;9.93;;
17686;SDS011;8962;52.538;13.266;2022-08-21T01:33:52;12.82;;;9.77;;
17686;SDS011;8962;52.538;13.266;2022-08-21T01:36:24;14.25;;;9.70;;
17686;SDS011;8962;52.538;13.266;2022-08-21T01:38:52;12.02;;;8.57;;
17686;SDS011;8962;52.538;13.266;2022-08-21T01:41:19;16.52;;;9.02;;
17686;SDS011;8962;52.538;13.266;2022-08-21T01:43:46;10.73;;;7.65;;
17686;SDS011;8962;52.538;13.266;2022-08-21T01:46:13;10.55;;;7.32;;
17686;SDS011;8962;52.538;13.266;2022-08-21T01:48:40;10.73;;;7.60;;
17686;SDS011;8962;52.538;13.266;2022-08-21T01:51:08;12.43;;;7.57;;
17686;SDS011;8962;52.538;13.266;2022-08-21T01:53:37;10.77;;;7.70;;
17686;SDS011;8962;52.538;13.266;2022-08-21T01:56:05;13.38;;;7.03;;
17686;SDS011;8962;52.538;13.266;2022-08-21T01:58:34;11.32;;;7.20;;
17686;SDS011;8962;52.538;13.266;2022-08-21T02:01:01;10.20;;;7.32;;
17686;SDS011;8962;52.538;13.266;2022-08-21T02:03:31;12.50;;;7.70;;
17686;SDS011;8962;52.538;13.266;2022-08-21T02:05:58;9.93;;;7.78;;
17686;SDS011;8962;52.538;13.266;2022-08-21T02:08:27;10.07;;;7.53;;
17686;SDS011;8962;52.538;13.266;2022-08-21T02:10:58;12.93;;;7.47;;
17686;SDS011;8962;52.538;13.266;2022-08-21T02:13:26;11.30;;;7.75;;
17686;SDS011;8962;52.538;13.266;2022-08-21T02:15:55;10.65;;;7.30;;
17686;SDS011;8962;52.538;13.266;2022-08-21T02:18:22;9.90;;;7.40;;
17686;SDS011;8962;52.538;13.266;2022-08-21T02:20:49;15.20;;;7.45;;
17686;SDS011;8962;52.538;13.266;2022-08-21T02:23:16;11.32;;;7.47;;
17686;SDS011;8962;52.538;13.266;2022-08-21T02:25:43;13.35;;;7.03;;
17686;SDS011;8962;52.538;13.266;2022-08-21T02:28:13;10.85;;;6.95;;
17686;SDS011;8962;52.538;13.266;2022-08-21T02:30:42;11.55;;;6.65;;
17686;SDS011;8962;52.538;13.266;2022-08-21T02:33:12;12.73;;;7.35;;
17686;SDS011;8962;52.538;13.266;2022-08-21T02:35:40;13.73;;;6.85;;
17686;SDS011;8962;52.538;13.266;2022-08-21T02:38:09;11.52;;;7.20;;
17686;SDS011;8962;52.538;13.266;2022-08-21T02:40:40;10.65;;;6.22;;
17686;SDS011;8962;52.538;13.266;2022-08-21T02:43:10;9.57;;;6.57;;
17686;SDS011;8962;52.538;13.266;2022-08-21T02:45:39;10.27;;;6.40;;
17686;SDS011;8962;52.538;13.266;2022-08-21T02:48:08;10.52;;;6.07;;
17686;SDS011;8962;52.538;13.266;2022-08-21T02:50:38;9.82;;;6.35;;
17686;SDS011;8962;52.538;13.266;2022-08-21T02:53:07;11.48;;;6.20;;
17686;SDS011;8962;52.538;13.266;2022-08-21T02:55:36;12.77;;;6.00;;
17686;SDS011;8962;52.538;13.266;2022-08-21T02:58:06;10.43;;;5.85;;
17686;SDS011;8962;52.538;13.266;2022-08-21T03:00:34;6.88;;;5.18;;
17686;SDS011;8962;52.538;13.266;2022-08-21T03:03:04;13.10;;;5.25;;
17686;SDS011;8962;52.538;13.266;2022-08-21T03:05:33;9.32;;;5.32;;
17686;SDS011;8962;52.538;13.266;2022-08-21T03:08:03;10.45;;;5.70;;
17686;SDS011;8962;52.538;13.266;2022-08-21T03:10:34;10.18;;;5.90;;
17686;SDS011;8962;52.538;13.266;2022-08-21T03:13:02;8.05;;;5.13;;
17686;SDS011;8962;52.538;13.266;2022-08-21T03:15:30;9.27;;;5.20;;
17686;SDS011;8962;52.538;13.266;2022-08-21T03:17:57;10.00;;;5.25;;
17686;SDS011;8962;52.538;13.266;2022-08-21T03:20:26;7.18;;;5.18;;
17686;SDS011;8962;52.538;13.266;2022-08-21T03:22:56;10.07;;;5.10;;
17686;SDS011;8962;52.538;13.266;2022-08-21T03:25:24;14.57;;;5.43;;
17686;SDS011;8962;52.538;13.266;2022-08-21T03:27:53;7.78;;;4.82;;
17686;SDS011;8962;52.538;13.266;2022-08-21T03:30:20;12.70;;;4.93;;
17686;SDS011;8962;52.538;13.266;2022-08-21T03:32:48;9.48;;;4.60;;
17686;SDS011;8962;52.538;13.266;2022-08-21T03:35:16;10.85;;;5.00;;
17686;SDS011;8962;52.538;13.266;2022-08-21T03:37:45;7.70;;;4.88;;
17686;SDS011;8962;52.538;13.266;2022-08-21T03:40:13;14.00;;;5.40;;
17686;SDS011;8962;52.538;13.266;2022-08-21T03:42:42;9.57;;;4.90;;
17686;SDS011;8962;52.538;13.266;2022-08-21T03:45:12;12.05;;;5.45;;
17686;SDS011;8962;52.538;13.266;2022-08-21T03:47:49;10.63;;;4.70;;
17686;SDS011;8962;52.538;13.266;2022-08-21T03:50:17;10.00;;;5.10;;
17686;SDS011;8962;52.538;13.266;2022-08-21T03:52:46;9.52;;;5.38;;
17686;SDS011;8962;52.538;13.266;2022-08-21T03:55:13;14.80;;;5.70;;
17686;SDS011;8962;52.538;13.266;2022-08-21T03:57:40;10.48;;;4.97;;
17686;SDS011;8962;52.538;13.266;2022-08-21T04:00:08;8.90;;;5.30;;
17686;SDS011;8962;52.538;13.266;2022-08-21T04:02:37;7.53;;;4.72;;
17686;SDS011;8962;52.538;13.266;2022-08-21T04:05:04;9.77;;;5.10;;
17686;SDS011;8962;52.538;13.266;2022-08-21T04:07:33;8.23;;;5.13;;
17686;SDS011;8962;52.538;13.266;2022-08-21T04:10:04;9.48;;;4.50;;
17686;SDS011;8962;52.538;13.266;2022-08-21T04:12:32;11.02;;;4.80;;
17686;SDS011;8962;52.538;13.266;2022-08-21T04:14:59;8.43;;;4.80;;
17686;SDS011;8962;52.538;13.266;2022-08-21T04:17:28;10.82;;;4.30;;
17686;SDS011;8962;52.538;13.266;2022-08-21T04:19:55;9.20;;;4.88;;
17686;SDS011;8962;52.538;13.266;2022-08-21T04:22:22;6.78;;;4.13;;
17686;SDS011;8962;52.538;13.266;2022-08-21T04:24:49;9.35;;;4.55;;
17686;SDS011;8962;52.538;13.266;2022-08-21T04:27:22;8.13;;;4.63;;
17686;SDS011;8962;52.538;13.266;2022-08-21T04:29:49;14.10;;;4.85;;
17686;SDS011;8962;52.538;13.266;2022-08-21T04:32:20;10.00;;;4.70;;
17686;SDS011;8962;52.538;13.266;2022-08-21T04:34:48;9.02;;;4.40;;
17686;SDS011;8962;52.538;13.266;2022-08-21T04:37:15;12.98;;;4.40;;
17686;SDS011;8962;52.538;13.266;2022-08-21T04:39:42;10.20;;;5.10;;
17686;SDS011;8962;52.538;13.266;2022-08-21T04:42:09;9.57;;;4.22;;
17686;SDS011;8962;52.538;13.266;2022-08-21T04:44:37;9.60;;;4.68;;
17686;SDS011;8962;52.538;13.266;2022-08-21T04:47:06;13.88;;;4.47;;
17686;SDS011;8962;52.538;13.266;2022-08-21T04:49:33;63.60;;;23.60;;
17686;SDS011;8962;52.538;13.266;2022-08-21T04:52:00;10.27;;;4.60;;
17686;SDS011;8962;52.538;13.266;2022-08-21T04:54:30;8.77;;;4.10;;
17686;SDS011;8962;52.538;13.266;2022-08-21T04:56:59;9.10;;;4.65;;
17686;SDS011;8962;52.538;13.266;2022-08-21T04:59:31;8.93;;;4.55;;
17686;SDS011;8962;52.538;13.266;2022-08-21T05:02:04;14.90;;;5.68;;
17686;SDS011;8962;52.538;13.266;2022-08-21T05:04:32;9.57;;;4.32;;
17686;SDS011;8962;52.538;13.266;2022-08-21T05:07:04;8.25;;;4.20;;
17686;SDS011;8962;52.538;13.266;2022-08-21T05:09:33;10.23;;;4.20;;
17686;SDS011;8962;52.538;13.266;2022-08-21T05:12:01;11.30;;;4.43;;
17686;SDS011;8962;52.538;13.266;2022-08-21T05:14:28;9.23;;;3.95;;
17686;SDS011;8962;52.538;13.266;2022-08-21T05:16:55;9.48;;;4.03;;
17686;SDS011;8962;52.538;13.266;2022-08-21T05:19:25;9.98;;;3.95;;
17686;SDS011;8962;52.538;13.266;2022-08-21T05:21:52;7.32;;;3.90;;
17686;SDS011;8962;52.538;13.266;2022-08-21T05:24:20;9.00;;;4.38;;
17686;SDS011;8962;52.538;13.266;2022-08-21T05:26:46;11.93;;;4.47;;
17686;SDS011;8962;52.538;13.266;2022-08-21T05:29:14;11.32;;;4.32;;
17686;SDS011;8962;52.538;13.266;2022-08-21T05:31:42;6.22;;;3.97;;
17686;SDS011;8962;52.538;13.266;2022-08-21T05:34:10;8.93;;;3.80;;
17686;SDS011;8962;52.538;13.266;2022-08-21T05:36:38;11.85;;;4.03;;
17686;SDS011;8962;52.538;13.266;2022-08-21T05:39:05;9.23;;;4.10;;
17686;SDS011;8962;52.538;13.266;2022-08-21T05:41:32;10.05;;;4.25;;
17686;SDS011;8962;52.538;13.266;2022-08-21T05:44:00;11.40;;;4.30;;
17686;SDS011;8962;52.538;13.266;2022-08-21T05:46:27;8.25;;;4.07;;
17686;SDS011;8962;52.538;13.266;2022-08-21T05:48:54;7.95;;;4.15;;
17686;SDS011;8962;52.538;13.266;2022-08-21T05:51:21;10.63;;;3.88;;
17686;SDS011;8962;52.538;13.266;2022-08-21T05:53:51;11.55;;;4.53;;
17686;SDS011;8962;52.538;13.266;2022-08-21T05:56:18;9.57;;;3.80;;
17686;SDS011;8962;52.538;13.266;2022-08-21T05:58:46;9.68;;;4.03;;
17686;SDS011;8962;52.538;13.266;2022-08-21T06:01:13;9.13;;;3.80;;
17686;SDS011;8962;52.538;13.266;2022-08-21T06:03:41;11.35;;;3.97;;
17686;SDS011;8962;52.538;13.266;2022-08-21T06:06:09;10.18;;;3.78;;
17686;SDS011;8962;52.538;13.266;2022-08-21T06:08:36;9.63;;;3.90;;
17686;SDS011;8962;52.538;13.266;2022-08-21T06:11:05;11.10;;;3.78;;
17686;SDS011;8962;52.538;13.266;2022-08-21T06:13:35;11.02;;;3.90;;
17686;SDS011;8962;52.538;13.266;2022-08-21T06:16:04;10.38;;;3.70;;
17686;SDS011;8962;52.538;13.266;2022-08-21T06:18:32;9.35;;;3.30;;
17686;SDS011;8962;52.538;13.266;2022-08-21T06:21:00;12.10;;;4.03;;
17686;SDS011;8962;52.538;13.266;2022-08-21T06:23:27;7.65;;;3.65;;
17686;SDS011;8962;52.538;13.266;2022-08-21T06:25:54;10.73;;;3.78;;
17686;SDS011;8962;52.538;13.266;2022-08-21T06:28:23;8.10;;;3.40;;
17686;SDS011;8962;52.538;13.266;2022-08-21T06:30:50;10.40;;;3.70;;
17686;SDS011;8962;52.538;13.266;2022-08-21T06:33:17;8.52;;;3.70;;
17686;SDS011;8962;52.538;13.266;2022-08-21T06:35:45;10.27;;;3.80;;
17686;SDS011;8962;52.538;13.266;2022-08-21T06:38:12;6.97;;;3.45;;
17686;SDS011;8962;52.538;13.266;2022-08-21T06:40:39;6.18;;;3.60;;
17686;SDS011;8962;52.538;13.266;2022-08-21T06:43:07;8.68;;;3.60;;
17686;SDS011;8962;52.538;13.266;2022-08-21T06:45:37;8.18;;;3.30;;
17686;SDS011;8962;52.538;13.266;2022-08-21T06:48:04;8.40;;;3.45;;
17686;SDS011;8962;52.538;13.266;2022-08-21T06:50:33;10.40;;;3.92;;
17686;SDS011;8962;52.538;13.266;2022-08-21T06:53:01;6.75;;;3.00;;
17686;SDS011;8962;52.538;13.266;2022-08-21T06:55:29;9.00;;;3.42;;
17686;SDS011;8962;52.538;13.266;2022-08-21T06:57:56;8.85;;;3.50;;
17686;SDS011;8962;52.538;13.266;2022-08-21T07:00:24;9.70;;;3.63;;
17686;SDS011;8962;52.538;13.266;2022-08-21T07:02:53;9.40;;;3.35;;
17686;SDS011;8962;52.538;13.266;2022-08-21T07:05:20;7.68;;;3.50;;
17686;SDS011;8962;52.538;13.266;2022-08-21T07:07:47;10.77;;;3.85;;
17686;SDS011;8962;52.538;13.266;2022-08-21T07:10:14;10.88;;;3.85;;
17686;SDS011;8962;52.538;13.266;2022-08-21T07:12:42;8.68;;;3.40;;
17686;SDS011;8962;52.538;13.266;2022-08-21T07:15:09;7.07;;;3.42;;
17686;SDS011;8962;52.538;13.266;2022-08-21T07:17:37;6.25;;;3.30;;
17686;SDS011;8962;52.538;13.266;2022-08-21T07:20:06;9.95;;;3.50;;
17686;SDS011;8962;52.538;13.266;2022-08-21T07:22:33;9.05;;;3.10;;
17686;SDS011;8962;52.538;13.266;2022-08-21T07:25:02;8.93;;;3.03;;
17686;SDS011;8962;52.538;13.266;2022-08-21T07:27:30;7.30;;;2.90;;
17686;SDS011;8962;52.538;13.266;2022-08-21T07:29:57;9.40;;;2.95;;
17686;SDS011;8962;52.538;13.266;2022-08-21T07:32:25;5.18;;;2.88;;
17686;SDS011;8962;52.538;13.266;2022-08-21T07:34:52;9.93;;;2.90;;
17686;SDS011;8962;52.538;13.266;2022-08-21T07:37:20;7.25;;;2.72;;
17686;SDS011;8962;52.538;13.266;2022-08-21T07:39:48;10.55;;;3.03;;
17686;SDS011;8962;52.538;13.266;2022-08-21T07:42:16;6.90;;;2.50;;
17686;SDS011;8962;52.538;13.266;2022-08-21T07:44:43;6.30;;;2.55;;
17686;SDS011;8962;52.538;13.266;2022-08-21T07:47:10;8.30;;;2.78;;
17686;SDS011;8962;52.538;13.266;2022-08-21T07:49:38;11.23;;;2.72;;
17686;SDS011;8962;52.538;13.266;2022-08-21T07:52:05;9.23;;;2.78;;
17686;SDS011;8962;52.538;13.266;2022-08-21T07:54:34;8.70;;;2.35;;
17686;SDS011;8962;52.538;13.266;2022-08-21T07:57:01;6.85;;;2.50;;
17686;SDS011;8962;52.538;13.266;2022-08-21T07:59:28;8.40;;;2.30;;
17686;SDS011;8962;52.538;13.266;2022-08-21T08:01:55;5.57;;;2.10;;
17686;SDS011;8962;52.538;13.266;2022-08-21T08:04:22;8.65;;;2.50;;
17686;SDS011;8962;52.538;13.266;2022-08-21T08:06:49;8.10;;;2.45;;
17686;SDS011;8962;52.538;13.266;2022-08-21T08:09:16;7.13;;;2.47;;
17686;SDS011;8962;52.538;13.266;2022-08-21T08:11:44;7.82;;;2.47;;
17686;SDS011;8962;52.538;13.266;2022-08-21T08:14:11;7.25;;;2.28;;
17686;SDS011;8962;52.538;13.266;2022-08-21T08:16:38;7.53;;;2.10;;
17686;SDS011;8962;52.538;13.266;2022-08-21T08:19:05;5.57;;;2.20;;
17686;SDS011;8962;52.538;13.266;2022-08-21T08:21:32;7.78;;;2.38;;
17686;SDS011;8962;52.538;13.266;2022-08-21T08:24:00;5.38;;;2.17;;
17686;SDS011;8962;52.538;13.266;2022-08-21T08:26:28;6.75;;;2.47;;
17686;SDS011;8962;52.538;13.266;2022-08-21T08:28:56;8.32;;;2.22;;
17686;SDS011;8962;52.538;13.266;2022-08-21T08:31:23;5.30;;;1.92;;
17686;SDS011;8962;52.538;13.266;2022-08-21T08:33:50;7.53;;;2.45;;
17686;SDS011;8962;52.538;13.266;2022-08-21T08:36:17;8.60;;;2.17;;
17686;SDS011;8962;52.538;13.266;2022-08-21T08:38:45;8.43;;;2.40;;
17686;SDS011;8962;52.538;13.266;2022-08-21T08:41:14;6.18;;;2.50;;
17686;SDS011;8962;52.538;13.266;2022-08-21T08:43:50;11.98;;;2.90;;
17686;SDS011;8962;52.538;13.266;2022-08-21T08:46:23;8.82;;;2.80;;
17686;SDS011;8962;52.538;13.266;2022-08-21T08:48:59;8.15;;;3.30;;
17686;SDS011;8962;52.538;13.266;2022-08-21T08:51:30;9.27;;;2.83;;
17686;SDS011;8962;52.538;13.266;2022-08-21T08:54:09;6.40;;;2.55;;
17686;SDS011;8962;52.538;13.266;2022-08-21T08:56:41;9.00;;;2.90;;
17686;SDS011;8962;52.538;13.266;2022-08-21T08:59:13;11.02;;;3.42;;
17686;SDS011;8962;52.538;13.266;2022-08-21T09:01:44;9.88;;;3.58;;
17686;SDS011;8962;52.538;13.266;2022-08-21T09:04:12;9.45;;;3.25;;
17686;SDS011;8962;52.538;13.266;2022-08-21T09:06:53;9.50;;;3.92;;
17686;SDS011;8962;52.538;13.266;2022-08-21T09:09:41;9.70;;;3.38;;
17686;SDS011;8962;52.538;13.266;2022-08-21T09:12:17;12.23;;;3.70;;
17686;SDS011;8962;52.538;13.266;2022-08-21T09:14:54;10.25;;;3.28;;
17686;SDS011;8962;52.538;13.266;2022-08-21T09:17:36;13.20;;;3.70;;
17686;SDS011;8962;52.538;13.266;2022-08-21T09:20:14;8.13;;;2.60;;
17686;SDS011;8962;52.538;13.266;2022-08-21T09:22:57;8.60;;;2.40;;
17686;SDS011;8962;52.538;13.266;2022-08-21T09:25:32;7.13;;;2.40;;
17686;SDS011;8962;52.538;13.266;2022-08-21T09:28:07;8.60;;;2.55;;
17686;SDS011;8962;52.538;13.266;2022-08-21T09:30:36;9.00;;;2.80;;
17686;SDS011;8962;52.538;13.266;2022-08-21T09:33:08;6.45;;;2.60;;
17686;SDS011;8962;52.538;13.266;2022-08-21T09:35:47;6.93;;;2.72;;
17686;SDS011;8962;52.538;13.266;2022-08-21T09:38:24;10.40;;;2.40;;
17686;SDS011;8962;52.538;13.266;2022-08-21T09:40:56;7.07;;;2.42;;
17686;SDS011;8962;52.538;13.266;2022-08-21T09:43:25;8.48;;;2.47;;
17686;SDS011;8962;52.538;13.266;2022-08-21T09:46:08;8.82;;;2.28;;
17686;SDS011;8962;52.538;13.266;2022-08-21T09:48:42;7.22;;;2.10;;
17686;SDS011;8962;52.538;13.266;2022-08-21T09:51:13;6.07;;;2.08;;
17686;SDS011;8962;52.538;13.266;2022-08-21T09:53:43;7.85;;;2.28;;
17686;SDS011;8962;52.538;13.266;2022-08-21T09:56:17;6.15;;;2.20;;
17686;SDS011;8962;52.538;13.266;2022-08-21T09:59:25;5.55;;;2.20;;
17686;SDS011;8962;52.538;13.266;2022-08-21T10:01:56;5.28;;;2.22;;
17686;SDS011;8962;52.538;13.266;2022-08-21T10:04:27;4.40;;;2.17;;
17686;SDS011;8962;52.538;13.266;2022-08-21T10:07:05;4.80;;;2.00;;
17686;SDS011;8962;52.538;13.266;2022-08-21T10:09:34;5.80;;;2.03;;
17686;SDS011;8962;52.538;13.266;2022-08-21T10:12:06;6.32;;;2.08;;
17686;SDS011;8962;52.538;13.266;2022-08-21T10:14:42;6.13;;;1.67;;
17686;SDS011;8962;52.538;13.266;2022-08-21T10:17:17;4.07;;;1.75;;
17686;SDS011;8962;52.538;13.266;2022-08-21T10:19:53;9.77;;;2.28;;
17686;SDS011;8962;52.538;13.266;2022-08-21T10:22:32;5.93;;;1.90;;
17686;SDS011;8962;52.538;13.266;2022-08-21T10:25:08;4.38;;;1.75;;
17686;SDS011;8962;52.538;13.266;2022-08-21T10:27:43;5.43;;;1.85;;
17686;SDS011;8962;52.538;13.266;2022-08-21T10:30:24;3.38;;;1.73;;
17686;SDS011;8962;52.538;13.266;2022-08-21T10:35:50;8.90;;;1.90;;
17686;SDS011;8962;52.538;13.266;2022-08-21T10:38:36;4.85;;;1.55;;
17686;SDS011;8962;52.538;13.266;2022-08-21T10:41:28;4.88;;;1.65;;
17686;SDS011;8962;52.538;13.266;2022-08-21T10:44:06;6.60;;;2.13;;
17686;SDS011;8962;52.538;13.266;2022-08-21T10:46:43;5.90;;;1.98;;
17686;SDS011;8962;52.538;13.266;2022-08-21T10:49:19;4.50;;;1.63;;
17686;SDS011;8962;52.538;13.266;2022-08-21T10:51:56;4.30;;;1.73;;
17686;SDS011;8962;52.538;13.266;2022-08-21T10:54:37;4.18;;;1.60;;
17686;SDS011;8962;52.538;13.266;2022-08-21T10:57:16;6.40;;;2.00;;
17686;SDS011;8962;52.538;13.266;2022-08-21T11:00:04;5.10;;;1.75;;
17686;SDS011;8962;52.538;13.266;2022-08-21T11:02:37;5.80;;;1.70;;
17686;SDS011;8962;52.538;13.266;2022-08-21T11:05:11;3.65;;;1.50;;
17686;SDS011;8962;52.538;13.266;2022-08-21T11:07:51;5.22;;;1.90;;
17686;SDS011;8962;52.538;13.266;2022-08-21T11:10:23;5.40;;;2.08;;
17686;SDS011;8962;52.538;13.266;2022-08-21T11:12:52;2.60;;;1.50;;
17686;SDS011;8962;52.538;13.266;2022-08-21T11:15:25;18.00;;;8.68;;
17686;SDS011;8962;52.538;13.266;2022-08-21T11:18:01;2.70;;;1.30;;
17686;SDS011;8962;52.538;13.266;2022-08-21T11:20:42;3.53;;;1.38;;
17686;SDS011;8962;52.538;13.266;2022-08-21T11:23:16;5.82;;;1.40;;
17686;SDS011;8962;52.538;13.266;2022-08-21T11:25:50;5.72;;;1.40;;
17686;SDS011;8962;52.538;13.266;2022-08-21T11:28:22;3.85;;;1.40;;
17686;SDS011;8962;52.538;13.266;2022-08-21T11:30:56;5.00;;;1.20;;
17686;SDS011;8962;52.538;13.266;2022-08-21T11:33:31;3.75;;;1.48;;
17686;SDS011;8962;52.538;13.266;2022-08-21T11:36:11;2.83;;;1.40;;
17686;SDS011;8962;52.538;13.266;2022-08-21T11:38:49;4.88;;;1.60;;
17686;SDS011;8962;52.538;13.266;2022-08-21T11:41:28;3.97;;;1.50;;
17686;SDS011;8962;52.538;13.266;2022-08-21T11:44:02;5.78;;;1.80;;
17686;SDS011;8962;52.538;13.266;2022-08-21T11:46:40;1.85;;;1.35;;
17686;SDS011;8962;52.538;13.266;2022-08-21T11:49:20;3.42;;;1.40;;
17686;SDS011;8962;52.538;13.266;2022-08-21T11:52:01;3.97;;;1.60;;
17686;SDS011;8962;52.538;13.266;2022-08-21T11:54:37;7.32;;;1.40;;
17686;SDS011;8962;52.538;13.266;2022-08-21T11:57:12;3.83;;;1.35;;
17686;SDS011;8962;52.538;13.266;2022-08-21T11:59:45;4.97;;;1.65;;
17686;SDS011;8962;52.538;13.266;2022-08-21T12:02:18;3.47;;;1.58;;
17686;SDS011;8962;52.538;13.266;2022-08-21T12:04:49;3.33;;;1.35;;
17686;SDS011;8962;52.538;13.266;2022-08-21T12:07:29;3.88;;;1.75;;
17686;SDS011;8962;52.538;13.266;2022-08-21T12:10:03;5.13;;;1.30;;
17686;SDS011;8962;52.538;13.266;2022-08-21T12:12:32;3.97;;;1.48;;
17686;SDS011;8962;52.538;13.266;2022-08-21T12:15:16;3.60;;;1.60;;
17686;SDS011;8962;52.538;13.266;2022-08-21T12:17:59;7.57;;;1.45;;
17686;SDS011;8962;52.538;13.266;2022-08-21T12:20:40;2.72;;;1.45;;
17686;SDS011;8962;52.538;13.266;2022-08-21T12:23:24;8.27;;;1.75;;
17686;SDS011;8962;52.538;13.266;2022-08-21T12:26:13;2.70;;;1.60;;
17686;SDS011;8962;52.538;13.266;2022-08-21T12:28:48;4.05;;;1.52;;
17686;SDS011;8962;52.538;13.266;2022-08-21T12:31:18;3.50;;;1.60;;
17686;SDS011;8962;52.538;13.266;2022-08-21T12:33:50;5.13;;;1.60;;
17686;SDS011;8962;52.538;13.266;2022-08-21T12:36:23;3.22;;;1.60;;
17686;SDS011;8962;52.538;13.266;2022-08-21T12:38:52;5.38;;;1.80;;
17686;SDS011;8962;52.538;13.266;2022-08-21T12:41:26;4.68;;;1.90;;
17686;SDS011;8962;52.538;13.266;2022-08-21T12:44:03;2.58;;;1.40;;
17686;SDS011;8962;52.538;13.266;2022-08-21T12:46:48;2.95;;;1.60;;
17686;SDS011;8962;52.538;13.266;2022-08-21T12:49:23;3.53;;;1.83;;
17686;SDS011;8962;52.538;13.266;2022-08-21T12:52:01;4.72;;;2.53;;
17686;SDS011;8962;52.538;13.266;2022-08-21T12:54:37;4.78;;;1.75;;
17686;SDS011;8962;52.538;13.266;2022-08-21T12:57:08;6.95;;;1.98;;
17686;SDS011;8962;52.538;13.266;2022-08-21T12:59:50;6.70;;;2.10;;
17686;SDS011;8962;52.538;13.266;2022-08-21T13:02:23;7.05;;;2.20;;
17686;SDS011;8962;52.538;13.266;2022-08-21T13:04:52;4.32;;;1.60;;
17686;SDS011;8962;52.538;13.266;2022-08-21T13:07:24;4.93;;;2.10;;
17686;SDS011;8962;52.538;13.266;2022-08-21T13:09:55;7.20;;;2.05;;
17686;SDS011;8962;52.538;13.266;2022-08-21T13:12:25;5.45;;;1.75;;
17686;SDS011;8962;52.538;13.266;2022-08-21T13:14:55;6.88;;;2.13;;
17686;SDS011;8962;52.538;13.266;2022-08-21T13:17:24;6.07;;;2.00;;
17686;SDS011;8962;52.538;13.266;2022-08-21T13:19:54;5.22;;;1.90;;
17686;SDS011;8962;52.538;13.266;2022-08-21T13:22:23;6.18;;;2.47;;
17686;SDS011;8962;52.538;13.266;2022-08-21T13:24:51;11.40;;;2.42;;
17686;SDS011;8962;52.538;13.266;2022-08-21T13:27:20;8.35;;;2.03;;
17686;SDS011;8962;52.538;13.266;2022-08-21T13:30:01;4.65;;;1.85;;
17686;SDS011;8962;52.538;13.266;2022-08-21T13:32:32;4.07;;;1.83;;
17686;SDS011;8962;52.538;13.266;2022-08-21T13:35:14;4.70;;;1.90;;
17686;SDS011;8962;52.538;13.266;2022-08-21T13:37:43;6.82;;;1.85;;
17686;SDS011;8962;52.538;13.266;2022-08-21T13:40:14;6.75;;;2.03;;
17686;SDS011;8962;52.538;13.266;2022-08-21T13:42:43;5.00;;;1.90;;
17686;SDS011;8962;52.538;13.266;2022-08-21T13:45:16;6.38;;;1.98;;
17686;SDS011;8962;52.538;13.266;2022-08-21T13:47:48;4.05;;;1.80;;
17686;SDS011;8962;52.538;13.266;2022-08-21T13:50:16;7.60;;;2.35;;
17686;SDS011;8962;52.538;13.266;2022-08-21T13:52:56;4.82;;;1.92;;
17686;SDS011;8962;52.538;13.266;2022-08-21T13:55:33;3.00;;;1.77;;
17686;SDS011;8962;52.538;13.266;2022-08-21T13:58:04;6.50;;;1.80;;
17686;SDS011;8962;52.538;13.266;2022-08-21T14:00:35;7.53;;;2.20;;
17686;SDS011;8962;52.538;13.266;2022-08-21T14:03:11;6.35;;;2.28;;
17686;SDS011;8962;52.538;13.266;2022-08-21T14:05:57;8.65;;;2.17;;
17686;SDS011;8962;52.538;13.266;2022-08-21T14:08:26;4.22;;;2.00;;
17686;SDS011;8962;52.538;13.266;2022-08-21T14:10:57;7.07;;;1.85;;
17686;SDS011;8962;52.538;13.266;2022-08-21T14:13:29;4.40;;;2.05;;
17686;SDS011;8962;52.538;13.266;2022-08-21T14:16:09;6.65;;;2.22;;
17686;SDS011;8962;52.538;13.266;2022-08-21T14:18:43;6.00;;;1.92;;
17686;SDS011;8962;52.538;13.266;2022-08-21T14:21:23;10.15;;;2.42;;
17686;SDS011;8962;52.538;13.266;2022-08-21T14:23:59;4.18;;;1.70;;
17686;SDS011;8962;52.538;13.266;2022-08-21T14:26:31;5.60;;;2.10;;
17686;SDS011;8962;52.538;13.266;2022-08-21T14:29:00;5.43;;;1.90;;
17686;SDS011;8962;52.538;13.266;2022-08-21T14:31:33;7.45;;;3.03;;
17686;SDS011;8962;52.538;13.266;2022-08-21T14:34:00;7.55;;;3.50;;
17686;SDS011;8962;52.538;13.266;2022-08-21T14:36:27;7.80;;;3.47;;
17686;SDS011;8962;52.538;13.266;2022-08-21T14:38:54;6.38;;;2.53;;
17686;SDS011;8962;52.538;13.266;2022-08-21T14:41:22;6.13;;;2.30;;
17686;SDS011;8962;52.538;13.266;2022-08-21T14:43:52;5.65;;;2.30;;
17686;SDS011;8962;52.538;13.266;2022-08-21T14:46:21;7.60;;;2.80;;
17686;SDS011;8962;52.538;13.266;2022-08-21T14:48:51;6.30;;;2.33;;
17686;SDS011;8962;52.538;13.266;2022-08-21T14:51:18;7.60;;;2.45;;
17686;SDS011;8962;52.538;13.266;2022-08-21T14:53:45;6.60;;;2.70;;
17686;SDS011;8962;52.538;13.266;2022-08-21T14:56:12;7.25;;;2.20;;
17686;SDS011;8962;52.538;13.266;2022-08-21T14:58:41;5.28;;;2.65;;
17686;SDS011;8962;52.538;13.266;2022-08-21T15:01:11;7.72;;;2.30;;
17686;SDS011;8962;52.538;13.266;2022-08-21T15:03:39;6.35;;;2.22;;
17686;SDS011;8962;52.538;13.266;2022-08-21T15:06:08;6.65;;;2.10;;